sensor_id;sensor_type;location;lat;lon;timestamp;temperature;humidity
8664;DHT22;4369;47.842;13.096;2022-12-18T00:01:37;-6.10;99.90
8664;DHT22;4369;47.842;13.096;2022-12-18T00:04:05;-6.00;99.90
8664;DHT22;4369;47.842;13.096;2022-12-18T00:06:34;-6.00;99.90
8664;DHT22;4369;47.842;13.096;2022-12-18T00:09:02;-6.00;99.90
8664;DHT22;4369;47.842;13.096;2022-12-18T00:11:30;-5.90;99.90
8664;DHT22;4369;47.842;13.096;2022-12-18T00:13:58;-6.00;99.90
8664;DHT22;4369;47.842;13.096;2022-12-18T00:16:28;-6.10;99.90
8664;DHT22;4369;47.842;13.096;2022-12-18T00:18:59;-6.10;99.90
8664;DHT22;4369;47.842;13.096;2022-12-18T00:21:27;-6.20;99.90
8664;DHT22;4369;47.842;13.096;2022-12-18T00:23:54;-6.20;99.90
8664;DHT22;4369;47.842;13.096;2022-12-18T00:26:23;-6.20;99.90
8664;DHT22;4369;47.842;13.096;2022-12-18T00:28:50;-6.10;99.90
8664;DHT22;4369;47.842;13.096;2022-12-18T00:31:20;-6.10;99.90
8664;DHT22;4369;47.842;13.096;2022-12-18T00:33:49;-6.20;99.90
8664;DHT22;4369;47.842;13.096;2022-12-18T00:36:17;-6.30;99.90
8664;DHT22;4369;47.842;13.096;2022-12-18T00:38:45;-6.20;99.90
8664;DHT22;4369;47.842;13.096;2022-12-18T00:41:14;-6.40;99.90
8664;DHT22;4369;47.842;13.096;2022-12-18T00:44:03;-6.40;99.90
8664;DHT22;4369;47.842;13.096;2022-12-18T00:46:29;-6.50;99.90
8664;DHT22;4369;47.842;13.096;2022-12-18T00:48:58;-6.40;99.90
8664;DHT22;4369;47.842;13.096;2022-12-18T00:51:25;-6.30;99.90
8664;DHT22;4369;47.842;13.096;2022-12-18T00:53:52;-6.30;99.90
8664;DHT22;4369;47.842;13.096;2022-12-18T00:56:19;-6.30;99.90
8664;DHT22;4369;47.842;13.096;2022-12-18T00:58:47;-6.30;99.90
8664;DHT22;4369;47.842;13.096;2022-12-18T01:01:15;-6.30;99.90
8664;DHT22;4369;47.842;13.096;2022-12-18T01:03:42;-6.50;99.90
8664;DHT22;4369;47.842;13.096;2022-12-18T01:06:14;-6.40;99.90
8664;DHT22;4369;47.842;13.096;2022-12-18T01:08:42;-6.30;99.90
8664;DHT22;4369;47.842;13.096;2022-12-18T01:11:09;-6.30;99.90
8664;DHT22;4369;47.842;13.096;2022-12-18T01:13:37;-6.40;99.90
8664;DHT22;4369;47.842;13.096;2022-12-18T01:16:04;-6.40;99.90
8664;DHT22;4369;47.842;13.096;2022-12-18T01:18:31;-6.40;99.90
8664;DHT22;4369;47.842;13.096;2022-12-18T01:20:58;-6.40;99.90
8664;DHT22;4369;47.842;13.096;2022-12-18T01:23:26;-6.40;99.90
8664;DHT22;4369;47.842;13.096;2022-12-18T01:25:53;-6.40;99.90
8664;DHT22;4369;47.842;13.096;2022-12-18T01:28:20;-6.50;99.90
8664;DHT22;4369;47.842;13.096;2022-12-18T01:30:47;-6.50;99.90
8664;DHT22;4369;47.842;13.096;2022-12-18T01:33:14;-6.40;99.90
8664;DHT22;4369;47.842;13.096;2022-12-18T01:35:41;-6.50;99.90
8664;DHT22;4369;47.842;13.096;2022-12-18T01:38:09;-6.40;99.90
8664;DHT22;4369;47.842;13.096;2022-12-18T01:40:37;-6.50;99.90
8664;DHT22;4369;47.842;13.096;2022-12-18T01:43:04;-6.50;99.90
8664;DHT22;4369;47.842;13.096;2022-12-18T01:45:32;-6.40;99.90
8664;DHT22;4369;47.842;13.096;2022-12-18T01:48:00;-6.50;99.90
8664;DHT22;4369;47.842;13.096;2022-12-18T01:50:31;-6.60;99.90
8664;DHT22;4369;47.842;13.096;2022-12-18T01:53:02;-6.60;99.90
8664;DHT22;4369;47.842;13.096;2022-12-18T01:55:35;-6.60;99.90
8664;DHT22;4369;47.842;13.096;2022-12-18T01:58:04;-6.50;99.90
8664;DHT22;4369;47.842;13.096;2022-12-18T02:00:31;-6.60;99.90
8664;DHT22;4369;47.842;13.096;2022-12-18T02:02:58;-6.60;99.90
8664;DHT22;4369;47.842;13.096;2022-12-18T02:05:34;-6.70;99.90
8664;DHT22;4369;47.842;13.096;2022-12-18T02:08:09;-6.70;99.90
8664;DHT22;4369;47.842;13.096;2022-12-18T02:10:44;-6.80;99.90
8664;DHT22;4369;47.842;13.096;2022-12-18T02:13:15;-6.80;99.90
8664;DHT22;4369;47.842;13.096;2022-12-18T02:15:50;-6.80;99.90
8664;DHT22;4369;47.842;13.096;2022-12-18T02:18:21;-6.90;99.90
8664;DHT22;4369;47.842;13.096;2022-12-18T02:20:55;-6.80;99.90
8664;DHT22;4369;47.842;13.096;2022-12-18T02:23:33;-6.70;99.90
8664;DHT22;4369;47.842;13.096;2022-12-18T02:26:10;-6.80;99.90
8664;DHT22;4369;47.842;13.096;2022-12-18T02:28:42;-6.90;99.90
8664;DHT22;4369;47.842;13.096;2022-12-18T02:31:14;-7.00;99.90
8664;DHT22;4369;47.842;13.096;2022-12-18T02:33:44;-6.90;99.90
8664;DHT22;4369;47.842;13.096;2022-12-18T02:36:13;-6.80;99.90
8664;DHT22;4369;47.842;13.096;2022-12-18T02:38:42;-6.80;99.90
8664;DHT22;4369;47.842;13.096;2022-12-18T02:41:11;-6.70;99.90
8664;DHT22;4369;47.842;13.096;2022-12-18T02:43:40;-6.80;99.90
8664;DHT22;4369;47.842;13.096;2022-12-18T02:46:28;-6.80;99.90
8664;DHT22;4369;47.842;13.096;2022-12-18T02:49:06;-6.90;99.90
8664;DHT22;4369;47.842;13.096;2022-12-18T02:51:43;-6.90;99.90
8664;DHT22;4369;47.842;13.096;2022-12-18T02:54:20;-7.00;99.90
8664;DHT22;4369;47.842;13.096;2022-12-18T02:56:53;-7.00;99.90
8664;DHT22;4369;47.842;13.096;2022-12-18T02:59:25;-7.00;99.90
8664;DHT22;4369;47.842;13.096;2022-12-18T03:01:58;-6.90;99.90
8664;DHT22;4369;47.842;13.096;2022-12-18T03:04:27;-7.00;99.90
8664;DHT22;4369;47.842;13.096;2022-12-18T03:06:57;-6.90;99.90
8664;DHT22;4369;47.842;13.096;2022-12-18T03:09:35;-6.90;99.90
8664;DHT22;4369;47.842;13.096;2022-12-18T03:12:09;-6.90;99.90
8664;DHT22;4369;47.842;13.096;2022-12-18T03:14:56;-6.90;99.90
8664;DHT22;4369;47.842;13.096;2022-12-18T03:17:27;-7.00;99.90
8664;DHT22;4369;47.842;13.096;2022-12-18T03:19:56;-7.20;99.90
8664;DHT22;4369;47.842;13.096;2022-12-18T03:22:27;-7.30;99.90
8664;DHT22;4369;47.842;13.096;2022-12-18T03:24:56;-7.20;99.90
8664;DHT22;4369;47.842;13.096;2022-12-18T03:27:26;-7.10;99.90
8664;DHT22;4369;47.842;13.096;2022-12-18T03:30:01;-7.20;99.90
8664;DHT22;4369;47.842;13.096;2022-12-18T03:32:38;-7.20;99.90
8664;DHT22;4369;47.842;13.096;2022-12-18T03:35:07;-7.20;99.90
8664;DHT22;4369;47.842;13.096;2022-12-18T03:37:34;-7.10;99.90
8664;DHT22;4369;47.842;13.096;2022-12-18T03:40:02;-7.00;99.90
8664;DHT22;4369;47.842;13.096;2022-12-18T03:42:34;-7.00;99.90
8664;DHT22;4369;47.842;13.096;2022-12-18T03:45:09;-7.10;99.90
8664;DHT22;4369;47.842;13.096;2022-12-18T03:47:41;-7.10;99.90
8664;DHT22;4369;47.842;13.096;2022-12-18T03:50:13;-7.10;99.90
8664;DHT22;4369;47.842;13.096;2022-12-18T03:52:45;-7.10;99.90
8664;DHT22;4369;47.842;13.096;2022-12-18T03:55:14;-7.10;99.90
8664;DHT22;4369;47.842;13.096;2022-12-18T03:57:44;-7.30;99.90
8664;DHT22;4369;47.842;13.096;2022-12-18T04:00:14;-7.40;99.90
8664;DHT22;4369;47.842;13.096;2022-12-18T04:02:45;-7.50;99.90
8664;DHT22;4369;47.842;13.096;2022-12-18T04:05:13;-7.40;99.90
8664;DHT22;4369;47.842;13.096;2022-12-18T04:07:41;-7.30;99.90
8664;DHT22;4369;47.842;13.096;2022-12-18T04:10:09;-7.20;99.90
8664;DHT22;4369;47.842;13.096;2022-12-18T04:12:37;-7.30;99.90
8664;DHT22;4369;47.842;13.096;2022-12-18T04:15:07;-7.40;99.90
8664;DHT22;4369;47.842;13.096;2022-12-18T04:17:34;-7.40;99.90
8664;DHT22;4369;47.842;13.096;2022-12-18T04:20:01;-7.40;99.90
8664;DHT22;4369;47.842;13.096;2022-12-18T04:22:28;-7.40;99.90
8664;DHT22;4369;47.842;13.096;2022-12-18T04:24:55;-7.30;99.90
8664;DHT22;4369;47.842;13.096;2022-12-18T04:27:22;-7.30;99.90
8664;DHT22;4369;47.842;13.096;2022-12-18T04:29:48;-7.20;99.90
8664;DHT22;4369;47.842;13.096;2022-12-18T04:32:17;-7.20;99.90
8664;DHT22;4369;47.842;13.096;2022-12-18T04:34:43;-7.20;99.90
8664;DHT22;4369;47.842;13.096;2022-12-18T04:37:10;-7.10;99.90
8664;DHT22;4369;47.842;13.096;2022-12-18T04:39:37;-7.10;99.90
8664;DHT22;4369;47.842;13.096;2022-12-18T04:42:04;-7.10;99.90
8664;DHT22;4369;47.842;13.096;2022-12-18T04:44:31;-7.10;99.90
8664;DHT22;4369;47.842;13.096;2022-12-18T04:46:58;-7.20;99.90
8664;DHT22;4369;47.842;13.096;2022-12-18T04:49:26;-7.20;99.90
8664;DHT22;4369;47.842;13.096;2022-12-18T04:51:53;-7.20;99.90
8664;DHT22;4369;47.842;13.096;2022-12-18T04:54:20;-7.10;99.90
8664;DHT22;4369;47.842;13.096;2022-12-18T04:56:47;-7.00;99.90
8664;DHT22;4369;47.842;13.096;2022-12-18T04:59:14;-7.00;99.90
8664;DHT22;4369;47.842;13.096;2022-12-18T05:01:41;-7.00;99.90
8664;DHT22;4369;47.842;13.096;2022-12-18T05:04:07;-7.00;99.90
8664;DHT22;4369;47.842;13.096;2022-12-18T05:06:35;-7.00;99.90
8664;DHT22;4369;47.842;13.096;2022-12-18T05:09:03;-7.00;99.90
8664;DHT22;4369;47.842;13.096;2022-12-18T05:11:30;-6.90;99.90
8664;DHT22;4369;47.842;13.096;2022-12-18T05:13:57;-7.00;99.90
8664;DHT22;4369;47.842;13.096;2022-12-18T05:16:23;-7.10;99.90
8664;DHT22;4369;47.842;13.096;2022-12-18T05:18:50;-7.00;99.90
8664;DHT22;4369;47.842;13.096;2022-12-18T05:21:17;-7.10;99.90
8664;DHT22;4369;47.842;13.096;2022-12-18T05:23:45;-7.10;99.90
8664;DHT22;4369;47.842;13.096;2022-12-18T05:26:15;-7.10;99.90
8664;DHT22;4369;47.842;13.096;2022-12-18T05:28:42;-7.10;99.90
8664;DHT22;4369;47.842;13.096;2022-12-18T05:31:09;-7.10;99.90
8664;DHT22;4369;47.842;13.096;2022-12-18T05:33:36;-7.20;99.90
8664;DHT22;4369;47.842;13.096;2022-12-18T05:36:06;-7.10;99.90
8664;DHT22;4369;47.842;13.096;2022-12-18T05:38:35;-7.20;99.90
8664;DHT22;4369;47.842;13.096;2022-12-18T05:41:04;-7.10;99.90
8664;DHT22;4369;47.842;13.096;2022-12-18T05:43:31;-7.10;99.90
8664;DHT22;4369;47.842;13.096;2022-12-18T05:45:57;-7.20;99.90
8664;DHT22;4369;47.842;13.096;2022-12-18T05:48:25;-7.20;99.90
8664;DHT22;4369;47.842;13.096;2022-12-18T05:50:51;-7.30;99.90
8664;DHT22;4369;47.842;13.096;2022-12-18T05:53:20;-7.60;99.90
8664;DHT22;4369;47.842;13.096;2022-12-18T05:55:47;-7.60;99.90
8664;DHT22;4369;47.842;13.096;2022-12-18T05:58:16;-7.50;99.90
8664;DHT22;4369;47.842;13.096;2022-12-18T06:00:45;-7.50;99.90
8664;DHT22;4369;47.842;13.096;2022-12-18T06:03:12;-7.40;99.90
8664;DHT22;4369;47.842;13.096;2022-12-18T06:05:42;-7.50;99.90
8664;DHT22;4369;47.842;13.096;2022-12-18T06:08:10;-7.50;99.90
8664;DHT22;4369;47.842;13.096;2022-12-18T06:10:37;-7.60;99.90
8664;DHT22;4369;47.842;13.096;2022-12-18T06:13:04;-7.50;99.90
8664;DHT22;4369;47.842;13.096;2022-12-18T06:15:35;-7.60;99.90
8664;DHT22;4369;47.842;13.096;2022-12-18T06:18:02;-7.80;99.90
8664;DHT22;4369;47.842;13.096;2022-12-18T06:20:31;-7.60;99.90
8664;DHT22;4369;47.842;13.096;2022-12-18T06:22:58;-7.50;99.90
8664;DHT22;4369;47.842;13.096;2022-12-18T06:25:24;-7.60;99.90
8664;DHT22;4369;47.842;13.096;2022-12-18T06:27:51;-7.60;99.90
8664;DHT22;4369;47.842;13.096;2022-12-18T06:30:18;-7.60;99.90
8664;DHT22;4369;47.842;13.096;2022-12-18T06:32:47;-7.50;99.90
8664;DHT22;4369;47.842;13.096;2022-12-18T06:35:14;-7.50;99.90
8664;DHT22;4369;47.842;13.096;2022-12-18T06:37:41;-7.50;99.90
8664;DHT22;4369;47.842;13.096;2022-12-18T06:40:09;-7.40;99.90
8664;DHT22;4369;47.842;13.096;2022-12-18T06:42:35;-7.40;99.90
8664;DHT22;4369;47.842;13.096;2022-12-18T06:45:03;-7.40;99.90
8664;DHT22;4369;47.842;13.096;2022-12-18T06:47:30;-7.40;99.90
8664;DHT22;4369;47.842;13.096;2022-12-18T06:49:58;-7.50;99.90
8664;DHT22;4369;47.842;13.096;2022-12-18T06:52:25;-7.60;99.90
8664;DHT22;4369;47.842;13.096;2022-12-18T06:54:52;-7.60;99.90
8664;DHT22;4369;47.842;13.096;2022-12-18T06:57:18;-7.60;99.90
8664;DHT22;4369;47.842;13.096;2022-12-18T06:59:45;-7.60;99.90
8664;DHT22;4369;47.842;13.096;2022-12-18T07:02:12;-7.50;99.90
8664;DHT22;4369;47.842;13.096;2022-12-18T07:04:39;-7.60;99.90
8664;DHT22;4369;47.842;13.096;2022-12-18T07:07:08;-7.60;99.90
8664;DHT22;4369;47.842;13.096;2022-12-18T07:09:35;-7.70;99.90
8664;DHT22;4369;47.842;13.096;2022-12-18T07:12:01;-7.60;99.90
8664;DHT22;4369;47.842;13.096;2022-12-18T07:14:30;-7.60;99.90
8664;DHT22;4369;47.842;13.096;2022-12-18T07:16:57;-7.60;99.90
8664;DHT22;4369;47.842;13.096;2022-12-18T07:19:24;-7.50;99.90
8664;DHT22;4369;47.842;13.096;2022-12-18T07:21:51;-7.50;99.90
8664;DHT22;4369;47.842;13.096;2022-12-18T07:24:19;-7.50;99.90
8664;DHT22;4369;47.842;13.096;2022-12-18T07:26:46;-7.50;99.90
8664;DHT22;4369;47.842;13.096;2022-12-18T07:29:13;-7.50;99.90
8664;DHT22;4369;47.842;13.096;2022-12-18T07:31:40;-7.50;99.90
8664;DHT22;4369;47.842;13.096;2022-12-18T07:34:10;-7.50;99.90
8664;DHT22;4369;47.842;13.096;2022-12-18T07:36:36;-7.40;99.90
8664;DHT22;4369;47.842;13.096;2022-12-18T07:39:03;-7.40;99.90
8664;DHT22;4369;47.842;13.096;2022-12-18T07:41:31;-7.40;99.90
8664;DHT22;4369;47.842;13.096;2022-12-18T07:43:58;-7.50;99.90
8664;DHT22;4369;47.842;13.096;2022-12-18T07:46:25;-7.40;99.90
8664;DHT22;4369;47.842;13.096;2022-12-18T07:48:52;-7.40;99.90
8664;DHT22;4369;47.842;13.096;2022-12-18T07:51:19;-7.40;99.90
8664;DHT22;4369;47.842;13.096;2022-12-18T07:53:46;-7.50;99.90
8664;DHT22;4369;47.842;13.096;2022-12-18T07:56:13;-7.40;99.90
8664;DHT22;4369;47.842;13.096;2022-12-18T07:58:41;-7.40;99.90
8664;DHT22;4369;47.842;13.096;2022-12-18T08:01:11;-7.40;99.90
8664;DHT22;4369;47.842;13.096;2022-12-18T08:03:39;-7.30;99.90
8664;DHT22;4369;47.842;13.096;2022-12-18T08:06:08;-7.20;99.90
8664;DHT22;4369;47.842;13.096;2022-12-18T08:08:35;-7.20;99.90
8664;DHT22;4369;47.842;13.096;2022-12-18T08:11:02;-7.20;99.90
8664;DHT22;4369;47.842;13.096;2022-12-18T08:13:29;-7.20;99.90
8664;DHT22;4369;47.842;13.096;2022-12-18T08:15:59;-7.10;99.90
8664;DHT22;4369;47.842;13.096;2022-12-18T08:18:26;-7.10;99.90
8664;DHT22;4369;47.842;13.096;2022-12-18T08:20:53;-7.20;99.90
8664;DHT22;4369;47.842;13.096;2022-12-18T08:23:20;-7.30;99.90
8664;DHT22;4369;47.842;13.096;2022-12-18T08:25:47;-7.30;99.90
8664;DHT22;4369;47.842;13.096;2022-12-18T08:28:15;-7.30;99.90
8664;DHT22;4369;47.842;13.096;2022-12-18T08:30:42;-7.10;99.90
8664;DHT22;4369;47.842;13.096;2022-12-18T08:33:11;-7.20;99.90
8664;DHT22;4369;47.842;13.096;2022-12-18T08:35:37;-7.20;99.90
8664;DHT22;4369;47.842;13.096;2022-12-18T08:38:04;-7.10;99.90
8664;DHT22;4369;47.842;13.096;2022-12-18T08:40:31;-7.00;99.90
8664;DHT22;4369;47.842;13.096;2022-12-18T08:42:58;-6.90;99.90
8664;DHT22;4369;47.842;13.096;2022-12-18T08:45:42;-6.90;99.90
8664;DHT22;4369;47.842;13.096;2022-12-18T08:48:10;-7.00;99.90
8664;DHT22;4369;47.842;13.096;2022-12-18T08:50:37;-7.00;99.90
8664;DHT22;4369;47.842;13.096;2022-12-18T08:53:04;-7.00;99.90
8664;DHT22;4369;47.842;13.096;2022-12-18T08:55:31;-6.90;99.90
8664;DHT22;4369;47.842;13.096;2022-12-18T08:57:58;-6.80;99.90
8664;DHT22;4369;47.842;13.096;2022-12-18T09:00:25;-6.90;99.90
8664;DHT22;4369;47.842;13.096;2022-12-18T09:02:51;-6.90;99.90
8664;DHT22;4369;47.842;13.096;2022-12-18T09:05:20;-6.70;99.90
8664;DHT22;4369;47.842;13.096;2022-12-18T09:07:46;-6.70;99.90
8664;DHT22;4369;47.842;13.096;2022-12-18T09:10:13;-6.70;99.90
8664;DHT22;4369;47.842;13.096;2022-12-18T09:12:40;-6.60;99.90
8664;DHT22;4369;47.842;13.096;2022-12-18T09:15:07;-6.50;99.90
8664;DHT22;4369;47.842;13.096;2022-12-18T09:17:34;-6.50;99.90
8664;DHT22;4369;47.842;13.096;2022-12-18T09:20:01;-6.30;99.90
8664;DHT22;4369;47.842;13.096;2022-12-18T09:22:30;-6.10;99.90
8664;DHT22;4369;47.842;13.096;2022-12-18T09:24:57;-5.70;99.90
8664;DHT22;4369;47.842;13.096;2022-12-18T09:27:24;-5.20;99.90
8664;DHT22;4369;47.842;13.096;2022-12-18T09:29:50;-4.90;99.90
8664;DHT22;4369;47.842;13.096;2022-12-18T09:32:17;-4.60;99.90
8664;DHT22;4369;47.842;13.096;2022-12-18T09:34:44;-4.20;99.90
8664;DHT22;4369;47.842;13.096;2022-12-18T09:37:11;-4.00;99.90
8664;DHT22;4369;47.842;13.096;2022-12-18T09:39:39;-3.80;99.90
8664;DHT22;4369;47.842;13.096;2022-12-18T09:42:13;-3.40;99.90
8664;DHT22;4369;47.842;13.096;2022-12-18T09:44:45;-3.00;99.90
8664;DHT22;4369;47.842;13.096;2022-12-18T09:47:19;-2.60;99.90
8664;DHT22;4369;47.842;13.096;2022-12-18T09:49:51;-2.30;99.90
8664;DHT22;4369;47.842;13.096;2022-12-18T09:52:23;-1.90;99.90
8664;DHT22;4369;47.842;13.096;2022-12-18T09:54:54;-1.40;99.90
8664;DHT22;4369;47.842;13.096;2022-12-18T09:57:23;-1.00;99.90
8664;DHT22;4369;47.842;13.096;2022-12-18T09:59:54;-0.40;99.90
8664;DHT22;4369;47.842;13.096;2022-12-18T10:02:24;0.10;99.90
8664;DHT22;4369;47.842;13.096;2022-12-18T10:05:05;0.40;99.90
8664;DHT22;4369;47.842;13.096;2022-12-18T10:07:41;1.60;99.90
8664;DHT22;4369;47.842;13.096;2022-12-18T10:10:21;2.10;99.90
8664;DHT22;4369;47.842;13.096;2022-12-18T10:12:56;3.30;98.20
8664;DHT22;4369;47.842;13.096;2022-12-18T10:15:32;4.10;93.20
8664;DHT22;4369;47.842;13.096;2022-12-18T10:18:12;5.20;90.20
8664;DHT22;4369;47.842;13.096;2022-12-18T10:20:43;6.20;81.20
8664;DHT22;4369;47.842;13.096;2022-12-18T10:23:18;7.00;74.70
8664;DHT22;4369;47.842;13.096;2022-12-18T10:25:53;8.80;69.50
8664;DHT22;4369;47.842;13.096;2022-12-18T10:28:23;9.90;62.90
8664;DHT22;4369;47.842;13.096;2022-12-18T10:30:50;11.30;58.20
8664;DHT22;4369;47.842;13.096;2022-12-18T10:33:20;12.30;53.10
8664;DHT22;4369;47.842;13.096;2022-12-18T10:35:48;12.80;50.00
8664;DHT22;4369;47.842;13.096;2022-12-18T10:38:24;14.10;48.60
8664;DHT22;4369;47.842;13.096;2022-12-18T10:40:54;15.00;45.70
8664;DHT22;4369;47.842;13.096;2022-12-18T10:43:24;15.60;43.60
8664;DHT22;4369;47.842;13.096;2022-12-18T10:46:04;16.20;41.00
8664;DHT22;4369;47.842;13.096;2022-12-18T10:48:34;16.60;40.00
8664;DHT22;4369;47.842;13.096;2022-12-18T10:51:02;17.30;38.50
8664;DHT22;4369;47.842;13.096;2022-12-18T10:53:31;17.70;37.10
8664;DHT22;4369;47.842;13.096;2022-12-18T10:56:02;18.20;36.80
8664;DHT22;4369;47.842;13.096;2022-12-18T10:58:31;18.30;35.30
8664;DHT22;4369;47.842;13.096;2022-12-18T11:01:07;18.00;35.60
8664;DHT22;4369;47.842;13.096;2022-12-18T11:03:38;17.30;35.80
8664;DHT22;4369;47.842;13.096;2022-12-18T11:06:08;17.00;35.80
8664;DHT22;4369;47.842;13.096;2022-12-18T11:08:35;17.00;35.50
8664;DHT22;4369;47.842;13.096;2022-12-18T11:11:07;17.70;35.60
8664;DHT22;4369;47.842;13.096;2022-12-18T11:13:42;18.40;35.50
8664;DHT22;4369;47.842;13.096;2022-12-18T11:16:18;18.60;34.80
8664;DHT22;4369;47.842;13.096;2022-12-18T11:18:45;18.50;34.10
8664;DHT22;4369;47.842;13.096;2022-12-18T11:21:12;18.50;33.60
8664;DHT22;4369;47.842;13.096;2022-12-18T11:23:47;17.90;33.60
8664;DHT22;4369;47.842;13.096;2022-12-18T11:26:17;17.10;34.40
8664;DHT22;4369;47.842;13.096;2022-12-18T11:28:46;16.40;35.20
8664;DHT22;4369;47.842;13.096;2022-12-18T11:31:24;15.70;36.00
8664;DHT22;4369;47.842;13.096;2022-12-18T11:33:58;14.80;37.40
8664;DHT22;4369;47.842;13.096;2022-12-18T11:36:31;14.10;38.80
8664;DHT22;4369;47.842;13.096;2022-12-18T11:39:03;13.60;39.70
8664;DHT22;4369;47.842;13.096;2022-12-18T11:41:38;12.80;40.40
8664;DHT22;4369;47.842;13.096;2022-12-18T11:44:28;12.10;42.60
8664;DHT22;4369;47.842;13.096;2022-12-18T11:47:01;11.20;43.40
8664;DHT22;4369;47.842;13.096;2022-12-18T11:49:33;10.10;44.10
8664;DHT22;4369;47.842;13.096;2022-12-18T11:52:03;8.50;45.90
8664;DHT22;4369;47.842;13.096;2022-12-18T11:54:31;8.40;49.10
8664;DHT22;4369;47.842;13.096;2022-12-18T11:57:07;8.60;49.90
8664;DHT22;4369;47.842;13.096;2022-12-18T11:59:44;8.90;50.40
8664;DHT22;4369;47.842;13.096;2022-12-18T12:02:27;9.20;50.40
8664;DHT22;4369;47.842;13.096;2022-12-18T12:05:05;9.40;50.20
8664;DHT22;4369;47.842;13.096;2022-12-18T12:07:44;9.90;49.60
8664;DHT22;4369;47.842;13.096;2022-12-18T12:10:23;11.00;47.20
8664;DHT22;4369;47.842;13.096;2022-12-18T12:13:09;12.20;46.20
8664;DHT22;4369;47.842;13.096;2022-12-18T12:15:44;13.30;44.10
8664;DHT22;4369;47.842;13.096;2022-12-18T12:18:22;14.30;42.80
8664;DHT22;4369;47.842;13.096;2022-12-18T12:20:59;15.10;41.80
8664;DHT22;4369;47.842;13.096;2022-12-18T12:23:38;15.40;41.00
8664;DHT22;4369;47.842;13.096;2022-12-18T12:26:08;14.70;40.10
8664;DHT22;4369;47.842;13.096;2022-12-18T12:28:52;14.50;40.40
8664;DHT22;4369;47.842;13.096;2022-12-18T12:31:33;14.60;40.80
8664;DHT22;4369;47.842;13.096;2022-12-18T12:34:09;13.70;40.70
8664;DHT22;4369;47.842;13.096;2022-12-18T12:36:48;13.10;41.40
8664;DHT22;4369;47.842;13.096;2022-12-18T12:39:22;13.70;41.10
8664;DHT22;4369;47.842;13.096;2022-12-18T12:41:59;14.10;41.00
8664;DHT22;4369;47.842;13.096;2022-12-18T12:44:50;15.40;40.20
8664;DHT22;4369;47.842;13.096;2022-12-18T12:47:20;14.60;39.30
8664;DHT22;4369;47.842;13.096;2022-12-18T12:49:49;14.80;40.00
8664;DHT22;4369;47.842;13.096;2022-12-18T12:52:21;15.60;39.50
8664;DHT22;4369;47.842;13.096;2022-12-18T12:54:51;15.70;38.10
8664;DHT22;4369;47.842;13.096;2022-12-18T12:57:21;16.20;38.20
8664;DHT22;4369;47.842;13.096;2022-12-18T12:59:57;15.70;38.20
8664;DHT22;4369;47.842;13.096;2022-12-18T13:02:30;16.20;38.10
8664;DHT22;4369;47.842;13.096;2022-12-18T13:05:02;16.00;37.80
8664;DHT22;4369;47.842;13.096;2022-12-18T13:07:35;16.20;37.80
8664;DHT22;4369;47.842;13.096;2022-12-18T13:10:27;16.00;38.10
8664;DHT22;4369;47.842;13.096;2022-12-18T13:12:59;16.40;38.10
8664;DHT22;4369;47.842;13.096;2022-12-18T13:15:31;16.50;37.60
8664;DHT22;4369;47.842;13.096;2022-12-18T13:18:12;16.00;37.20
8664;DHT22;4369;47.842;13.096;2022-12-18T13:20:41;13.30;38.30
8664;DHT22;4369;47.842;13.096;2022-12-18T13:23:30;11.30;41.40
8664;DHT22;4369;47.842;13.096;2022-12-18T13:25:59;11.40;43.00
8664;DHT22;4369;47.842;13.096;2022-12-18T13:28:51;10.40;42.70
8664;DHT22;4369;47.842;13.096;2022-12-18T13:34:30;8.40;47.20
8664;DHT22;4369;47.842;13.096;2022-12-18T13:43:27;10.30;45.60
8664;DHT22;4369;47.842;13.096;2022-12-18T13:46:06;10.50;45.20
8664;DHT22;4369;47.842;13.096;2022-12-18T13:48:50;9.90;46.00
8664;DHT22;4369;47.842;13.096;2022-12-18T13:51:18;9.90;46.40
8664;DHT22;4369;47.842;13.096;2022-12-18T13:53:49;9.90;46.50
8664;DHT22;4369;47.842;13.096;2022-12-18T13:56:21;8.30;47.30
8664;DHT22;4369;47.842;13.096;2022-12-18T14:01:00;5.80;52.90
8664;DHT22;4369;47.842;13.096;2022-12-18T15:34:35;-2.50;99.90
8664;DHT22;4369;47.842;13.096;2022-12-18T15:37:02;-2.70;99.90
8664;DHT22;4369;47.842;13.096;2022-12-18T15:39:29;-2.70;99.90
8664;DHT22;4369;47.842;13.096;2022-12-18T15:41:56;-2.80;99.90
8664;DHT22;4369;47.842;13.096;2022-12-18T15:44:40;-2.80;99.90
8664;DHT22;4369;47.842;13.096;2022-12-18T15:47:12;-2.80;99.90
8664;DHT22;4369;47.842;13.096;2022-12-18T15:49:42;-2.90;99.90
8664;DHT22;4369;47.842;13.096;2022-12-18T15:52:12;-3.00;99.90
8664;DHT22;4369;47.842;13.096;2022-12-18T15:54:39;-3.00;99.90
8664;DHT22;4369;47.842;13.096;2022-12-18T15:57:24;-3.00;99.90
8664;DHT22;4369;47.842;13.096;2022-12-18T15:59:51;-3.10;99.90
8664;DHT22;4369;47.842;13.096;2022-12-18T16:02:20;-3.10;99.90
8664;DHT22;4369;47.842;13.096;2022-12-18T16:04:49;-3.10;99.90
8664;DHT22;4369;47.842;13.096;2022-12-18T16:07:16;-3.10;99.90
8664;DHT22;4369;47.842;13.096;2022-12-18T16:09:43;-3.10;99.90
8664;DHT22;4369;47.842;13.096;2022-12-18T16:12:16;-3.00;99.90
8664;DHT22;4369;47.842;13.096;2022-12-18T16:14:43;-3.20;99.90
8664;DHT22;4369;47.842;13.096;2022-12-18T16:17:11;-3.30;99.90
8664;DHT22;4369;47.842;13.096;2022-12-18T16:19:39;-3.40;99.90
8664;DHT22;4369;47.842;13.096;2022-12-18T16:22:17;-3.40;99.90
8664;DHT22;4369;47.842;13.096;2022-12-18T16:24:45;-3.40;99.90
8664;DHT22;4369;47.842;13.096;2022-12-18T16:27:12;-3.60;99.90
8664;DHT22;4369;47.842;13.096;2022-12-18T16:29:39;-3.60;99.90
8664;DHT22;4369;47.842;13.096;2022-12-18T16:32:06;-3.60;99.90
8664;DHT22;4369;47.842;13.096;2022-12-18T16:34:33;-3.50;99.90
8664;DHT22;4369;47.842;13.096;2022-12-18T16:37:02;-3.60;99.90
8664;DHT22;4369;47.842;13.096;2022-12-18T16:39:31;-3.50;99.90
8664;DHT22;4369;47.842;13.096;2022-12-18T16:41:59;-3.50;99.90
8664;DHT22;4369;47.842;13.096;2022-12-18T16:44:26;-3.70;99.90
8664;DHT22;4369;47.842;13.096;2022-12-18T16:46:53;-3.60;99.90
8664;DHT22;4369;47.842;13.096;2022-12-18T16:49:20;-3.60;99.90
8664;DHT22;4369;47.842;13.096;2022-12-18T16:51:48;-3.70;99.90
8664;DHT22;4369;47.842;13.096;2022-12-18T16:54:14;-3.70;99.90
8664;DHT22;4369;47.842;13.096;2022-12-18T16:56:43;-3.80;99.90
8664;DHT22;4369;47.842;13.096;2022-12-18T16:59:11;-3.80;99.90
8664;DHT22;4369;47.842;13.096;2022-12-18T17:01:38;-3.80;99.90
8664;DHT22;4369;47.842;13.096;2022-12-18T17:04:06;-3.90;99.90
8664;DHT22;4369;47.842;13.096;2022-12-18T17:06:35;-3.90;99.90
8664;DHT22;4369;47.842;13.096;2022-12-18T17:09:04;-4.00;99.90
8664;DHT22;4369;47.842;13.096;2022-12-18T17:11:33;-4.20;99.90
8664;DHT22;4369;47.842;13.096;2022-12-18T17:14:07;-4.10;99.90
8664;DHT22;4369;47.842;13.096;2022-12-18T17:16:37;-4.10;99.90
8664;DHT22;4369;47.842;13.096;2022-12-18T17:19:04;-4.10;99.90
8664;DHT22;4369;47.842;13.096;2022-12-18T17:21:31;-4.10;99.90
8664;DHT22;4369;47.842;13.096;2022-12-18T17:23:59;-4.00;99.90
8664;DHT22;4369;47.842;13.096;2022-12-18T17:26:26;-4.10;99.90
8664;DHT22;4369;47.842;13.096;2022-12-18T17:28:55;-4.10;99.90
8664;DHT22;4369;47.842;13.096;2022-12-18T17:31:25;-4.20;99.90
8664;DHT22;4369;47.842;13.096;2022-12-18T17:33:52;-4.20;99.90
8664;DHT22;4369;47.842;13.096;2022-12-18T17:36:20;-4.30;99.90
8664;DHT22;4369;47.842;13.096;2022-12-18T17:38:49;-4.20;99.90
8664;DHT22;4369;47.842;13.096;2022-12-18T17:41:17;-4.20;99.90
8664;DHT22;4369;47.842;13.096;2022-12-18T17:43:45;-4.20;99.90
8664;DHT22;4369;47.842;13.096;2022-12-18T17:46:16;-4.20;99.90
8664;DHT22;4369;47.842;13.096;2022-12-18T17:48:44;-4.20;99.90